createdAt,value
2022-08-17T00:00:34.613Z,99788.00
2022-08-17T00:03:17.259Z,99780.00
2022-08-17T00:05:51.338Z,99780.00
2022-08-17T00:08:21.925Z,99776.00
2022-08-17T00:10:53.661Z,99774.00
2022-08-17T00:13:26.444Z,99772.00
2022-08-17T00:16:00.424Z,99779.00
2022-08-17T00:18:58.346Z,99782.00
2022-08-17T00:21:23.829Z,99781.00
2022-08-17T00:23:56.131Z,99776.00
2022-08-17T00:26:44.396Z,99781.00
2022-08-17T00:29:19.553Z,99786.00
2022-08-17T00:31:49.115Z,99782.00
2022-08-17T00:34:17.987Z,99793.00
2022-08-17T00:36:46.619Z,99789.00
2022-08-17T00:39:16.086Z,99792.00
2022-08-17T00:41:47.892Z,99789.00
2022-08-17T00:44:16.848Z,99792.00
2022-08-17T00:46:48.345Z,99795.00
2022-08-17T00:49:23.612Z,99797.00
2022-08-17T00:51:58.311Z,99793.00
2022-08-17T00:54:31.687Z,99796.00
2022-08-17T00:57:05.811Z,99802.00
2022-08-17T00:59:39.899Z,99794.00
2022-08-17T01:02:11.374Z,99795.00
2022-08-17T01:04:41.433Z,99799.00
2022-08-17T01:07:11.234Z,99798.00
2022-08-17T01:09:40.098Z,99795.00
2022-08-17T01:12:12.107Z,99792.00
2022-08-17T01:14:41.721Z,99790.00
2022-08-17T01:17:12.144Z,99792.00
2022-08-17T01:19:43.642Z,99795.00
2022-08-17T01:22:21.340Z,99791.00
2022-08-17T01:25:01.816Z,99796.00
2022-08-17T01:27:31.361Z,99804.00
2022-08-17T01:30:02.956Z,99800.00
2022-08-17T01:32:32.539Z,99807.00
2022-08-17T01:35:02.563Z,99806.00
2022-08-17T01:37:35.857Z,99805.00
2022-08-17T01:40:11.078Z,99798.00
2022-08-17T01:42:43.906Z,99802.00
2022-08-17T01:45:16.735Z,99809.00
2022-08-17T01:47:45.737Z,99798.00
2022-08-17T01:50:17.518Z,99806.00
2022-08-17T01:52:51.513Z,99803.00
2022-08-17T01:55:27.300Z,99800.00
2022-08-17T01:57:56.396Z,99803.00
2022-08-17T02:00:25.806Z,99801.00
2022-08-17T02:02:54.605Z,99802.00
2022-08-17T02:05:23.736Z,99800.00
2022-08-17T02:08:00.633Z,99806.00
2022-08-17T02:10:34.262Z,99803.00
2022-08-17T02:13:04.439Z,99795.00
2022-08-17T02:15:34.644Z,99803.00
2022-08-17T02:18:03.483Z,99797.00
2022-08-17T02:20:41.838Z,99789.00
2022-08-17T02:23:14.483Z,99788.00
2022-08-17T02:25:49.336Z,99788.00
2022-08-17T02:28:19.193Z,99800.00
2022-08-17T02:31:01.746Z,99793.00
2022-08-17T02:33:42.091Z,99792.00
2022-08-17T02:36:13.894Z,99793.00
2022-08-17T02:38:45.088Z,99786.00
2022-08-17T02:41:14.103Z,99785.00
2022-08-17T02:43:43.054Z,99797.00
2022-08-17T02:46:12.768Z,99793.00
2022-08-17T02:48:42.247Z,99793.00
2022-08-17T02:51:11.345Z,99793.00
2022-08-17T02:53:40.120Z,99792.00
2022-08-17T02:56:10.419Z,99798.00
2022-08-17T02:58:39.416Z,99794.00
2022-08-17T03:01:10.293Z,99796.00
2022-08-17T03:03:40.125Z,99798.00
2022-08-17T03:06:09.628Z,99792.00
2022-08-17T03:08:38.609Z,99790.00
2022-08-17T03:11:07.431Z,99787.00
2022-08-17T03:13:37.439Z,99797.00
2022-08-17T03:16:06.469Z,99794.00
2022-08-17T03:18:35.232Z,99781.00
2022-08-17T03:21:05.384Z,99788.00
2022-08-17T03:23:34.072Z,99783.00
2022-08-17T03:26:03.133Z,99787.00
2022-08-17T03:28:32.374Z,99788.00
2022-08-17T03:31:03.096Z,99782.00
2022-08-17T03:33:32.063Z,99783.00
2022-08-17T03:36:01.119Z,99783.00
2022-08-17T03:38:29.891Z,99778.00
2022-08-17T03:41:08.620Z,99780.00
2022-08-17T03:43:37.468Z,99781.00
2022-08-17T03:46:28.401Z,99774.00
2022-08-17T03:49:21.713Z,99773.00
2022-08-17T03:52:07.963Z,99767.00
2022-08-17T03:54:54.129Z,99778.00
2022-08-17T03:57:22.681Z,99774.00
2022-08-17T03:59:51.692Z,99770.00
2022-08-17T04:02:25.505Z,99775.00
2022-08-17T04:04:54.423Z,99776.00
2022-08-17T04:07:25.942Z,99774.00
2022-08-17T04:09:54.858Z,99760.00
2022-08-17T04:12:25.722Z,99774.00
2022-08-17T04:14:55.282Z,99776.00
2022-08-17T04:17:28.415Z,99781.00
2022-08-17T04:19:58.324Z,99780.00
2022-08-17T04:22:30.930Z,99772.00
2022-08-17T04:25:04.271Z,99784.00
2022-08-17T04:27:33.189Z,99791.00
2022-08-17T04:30:01.833Z,99788.00
2022-08-17T04:32:59.432Z,99790.00
2022-08-17T04:35:24.832Z,99789.00
2022-08-17T04:37:54.344Z,99788.00
2022-08-17T04:40:41.909Z,99800.00
2022-08-17T04:43:13.602Z,99791.00
2022-08-17T04:45:55.566Z,99800.00
2022-08-17T04:48:35.500Z,99806.00
2022-08-17T04:51:07.609Z,99817.00
2022-08-17T04:53:37.018Z,99809.00
2022-08-17T04:56:16.178Z,99824.00
2022-08-17T04:58:49.958Z,99810.00
2022-08-17T05:01:24.065Z,99805.00
2022-08-17T05:03:56.178Z,99817.00
2022-08-17T05:06:25.230Z,99819.00
2022-08-17T05:08:54.688Z,99812.00
2022-08-17T05:11:23.804Z,99819.00
2022-08-17T05:13:52.472Z,99811.00
2022-08-17T05:16:23.181Z,99823.00
2022-08-17T05:18:53.713Z,99818.00
2022-08-17T05:21:23.527Z,99823.00
2022-08-17T05:23:55.014Z,99824.00
2022-08-17T05:26:28.813Z,99826.00
2022-08-17T05:29:02.397Z,99823.00
2022-08-17T05:31:32.423Z,99826.00
2022-08-17T05:34:02.408Z,99827.00
2022-08-17T05:36:42.300Z,99830.00
2022-08-17T05:39:15.733Z,99829.00
2022-08-17T05:41:49.144Z,99826.00
2022-08-17T05:44:18.213Z,99837.00
2022-08-17T05:46:50.550Z,99831.00
2022-08-17T05:49:25.746Z,99827.00
2022-08-17T05:52:20.345Z,99841.00
2022-08-17T05:55:10.287Z,99839.00
2022-08-17T05:57:53.784Z,99832.00
2022-08-17T06:00:30.818Z,99832.00
2022-08-17T06:03:19.381Z,99843.00
2022-08-17T06:06:02.412Z,99843.00
2022-08-17T06:08:36.244Z,99841.00
2022-08-17T06:11:12.839Z,99849.00
2022-08-17T06:14:01.633Z,99853.00
2022-08-17T06:16:36.779Z,99862.00
2022-08-17T06:19:13.053Z,99865.00
2022-08-17T06:21:48.504Z,99858.00
2022-08-17T06:24:29.591Z,99866.00
2022-08-17T06:27:06.254Z,99852.00
2022-08-17T06:29:44.011Z,99866.00
2022-08-17T06:32:14.635Z,99874.00
2022-08-17T06:34:46.279Z,99877.00
2022-08-17T06:37:33.669Z,99869.00
2022-08-17T06:40:22.823Z,99876.00
2022-08-17T06:43:06.497Z,99876.00
2022-08-17T06:45:41.160Z,99876.00
2022-08-17T06:48:16.360Z,99877.00
2022-08-17T06:50:48.941Z,99882.00
2022-08-17T06:53:26.005Z,99878.00
2022-08-17T06:56:00.136Z,99871.00
2022-08-17T06:58:31.746Z,99868.00
2022-08-17T07:01:07.820Z,99872.00
2022-08-17T07:03:40.792Z,99876.00
2022-08-17T07:06:15.921Z,99872.00
2022-08-17T07:08:57.120Z,99878.00
2022-08-17T07:11:31.554Z,99878.00
2022-08-17T07:14:16.999Z,99877.00
2022-08-17T07:16:50.741Z,99870.00
2022-08-17T07:19:22.661Z,99879.00
2022-08-17T07:21:58.596Z,99883.00
2022-08-17T07:24:35.952Z,99877.00
2022-08-17T07:27:08.291Z,99884.00
2022-08-17T07:29:41.735Z,99874.00
2022-08-17T07:32:13.549Z,99876.00
2022-08-17T07:35:11.171Z,99875.00
2022-08-17T07:37:41.691Z,99866.00
2022-08-17T07:40:28.183Z,99867.00
2022-08-17T07:43:22.018Z,99865.00
2022-08-17T07:46:33.274Z,99873.00
2022-08-17T07:49:24.321Z,99875.00
2022-08-17T07:52:24.232Z,99871.00
2022-08-17T07:54:48.945Z,99878.00
2022-08-17T07:57:35.321Z,99875.00
2022-08-17T08:00:32.719Z,99869.00
2022-08-17T08:03:06.029Z,99872.00
2022-08-17T08:05:50.704Z,99865.00
2022-08-17T08:08:31.929Z,99864.00
2022-08-17T08:11:05.377Z,99863.00
2022-08-17T08:13:42.294Z,99862.00
2022-08-17T08:16:22.649Z,99863.00
2022-08-17T08:18:56.722Z,99874.00
2022-08-17T08:21:34.361Z,99864.00
2022-08-17T08:24:16.918Z,99865.00
2022-08-17T08:26:55.435Z,99865.00
2022-08-17T08:29:32.999Z,99853.00
2022-08-17T08:32:12.262Z,99859.00
2022-08-17T08:35:01.827Z,99859.00
2022-08-17T08:37:43.282Z,99858.00
2022-08-17T08:40:27.323Z,99864.00
2022-08-17T08:43:04.097Z,99863.00
2022-08-17T08:45:44.609Z,99862.00
2022-08-17T08:48:53.123Z,99856.00
2022-08-17T08:51:27.849Z,99856.00
2022-08-17T08:54:04.455Z,99858.00
2022-08-17T08:56:39.669Z,99855.00
2022-08-17T08:59:21.373Z,99849.00
2022-08-17T09:01:59.812Z,99854.00
2022-08-17T09:05:12.743Z,99857.00
2022-08-17T09:07:47.388Z,99860.00
2022-08-17T09:10:24.657Z,99860.00
2022-08-17T09:13:09.537Z,99862.00
2022-08-17T09:15:42.230Z,99859.00
2022-08-17T09:18:59.923Z,99861.00
2022-08-17T09:21:11.398Z,99860.00
2022-08-17T09:23:45.802Z,99853.00
2022-08-17T09:26:21.121Z,99857.00
2022-08-17T09:28:52.973Z,99841.00
2022-08-17T09:31:26.821Z,99842.00
2022-08-17T09:34:03.353Z,99845.00
2022-08-17T09:36:35.620Z,99842.00
2022-08-17T09:39:11.136Z,99843.00
2022-08-17T09:41:48.676Z,99844.00
2022-08-17T09:44:25.592Z,99839.00
2022-08-17T09:46:58.121Z,99843.00
2022-08-17T09:49:34.600Z,99833.00
2022-08-17T09:52:09.400Z,99850.00
2022-08-17T09:54:40.766Z,99850.00
2022-08-17T09:57:31.833Z,99847.00
2022-08-17T10:00:16.957Z,99849.00
2022-08-17T10:03:16.338Z,99836.00
2022-08-17T10:05:56.587Z,99841.00
2022-08-17T10:08:34.802Z,99850.00
2022-08-17T10:11:16.461Z,99841.00
2022-08-17T10:13:53.093Z,99840.00
2022-08-17T10:16:31.528Z,99841.00
2022-08-17T10:19:09.954Z,99842.00
2022-08-17T10:22:32.585Z,99843.00
2022-08-17T10:25:22.149Z,99845.00
2022-08-17T10:27:55.794Z,99838.00
2022-08-17T10:30:27.419Z,99831.00
2022-08-17T10:32:59.263Z,99834.00
2022-08-17T10:35:35.543Z,99829.00
2022-08-17T10:38:37.537Z,99827.00
2022-08-17T10:41:24.237Z,99835.00
2022-08-17T10:44:40.233Z,99828.00
2022-08-17T10:47:03.844Z,99830.00
2022-08-17T10:49:35.060Z,99823.00
2022-08-17T10:52:26.020Z,99824.00
2022-08-17T10:55:13.831Z,99824.00
2022-08-17T10:57:45.908Z,99826.00
2022-08-17T11:00:31.206Z,99820.00
2022-08-17T11:03:01.109Z,99812.00
2022-08-17T11:05:44.012Z,99819.00
2022-08-17T11:08:39.631Z,99820.00
2022-08-17T11:11:24.386Z,99821.00
2022-08-17T11:14:06.256Z,99818.00
2022-08-17T11:16:47.984Z,99822.00
2022-08-17T11:19:52.319Z,99822.00
2022-08-17T11:22:45.592Z,99813.00
2022-08-17T11:25:18.157Z,99817.00
2022-08-17T11:27:53.605Z,99812.00
2022-08-17T11:30:48.727Z,99802.00
2022-08-17T11:33:53.479Z,99807.00
2022-08-17T11:36:36.265Z,99810.00
2022-08-17T11:39:17.475Z,99805.00
2022-08-17T11:41:50.987Z,99803.00
2022-08-17T11:44:46.437Z,99801.00
2022-08-17T11:47:39.773Z,99807.00
2022-08-17T11:50:45.296Z,99805.00
2022-08-17T11:53:47.003Z,99806.00
2022-08-17T11:56:38.255Z,99811.00
2022-08-17T11:59:48.487Z,99812.00
2022-08-17T12:02:47.396Z,99809.00
2022-08-17T12:05:33.323Z,99808.00
2022-08-17T12:08:15.219Z,99799.00
2022-08-17T12:10:55.228Z,99794.00
2022-08-17T12:13:27.334Z,99801.00
2022-08-17T12:16:00.752Z,99793.00
2022-08-17T12:18:35.488Z,99788.00
2022-08-17T12:21:27.747Z,99783.00
2022-08-17T12:24:06.561Z,99778.00
2022-08-17T12:26:37.264Z,99785.00
2022-08-17T12:29:09.333Z,99784.00
2022-08-17T12:31:49.138Z,99776.00
2022-08-17T12:34:22.696Z,99780.00
2022-08-17T12:36:59.098Z,99778.00
2022-08-17T12:39:29.801Z,99774.00
2022-08-17T12:42:03.099Z,99772.00
2022-08-17T12:44:34.923Z,99768.00
2022-08-17T12:47:22.694Z,99774.00
2022-08-17T12:50:05.647Z,99770.00
2022-08-17T12:52:38.299Z,99768.00
2022-08-17T12:55:11.975Z,99770.00
2022-08-17T12:57:43.983Z,99762.00
2022-08-17T13:00:17.782Z,99764.00
2022-08-17T13:02:49.534Z,99769.00
2022-08-17T13:05:25.225Z,99756.00
2022-08-17T13:07:54.923Z,99756.00
2022-08-17T13:10:32.453Z,99763.00
2022-08-17T13:13:05.304Z,99757.00
2022-08-17T13:15:38.852Z,99753.00
2022-08-17T13:18:36.779Z,99754.00
2022-08-17T13:21:12.280Z,99755.00
2022-08-17T13:23:44.833Z,99758.00
2022-08-17T13:26:29.407Z,99755.00
2022-08-17T13:28:58.516Z,99756.00
2022-08-17T13:31:51.800Z,99758.00
2022-08-17T13:35:11.752Z,99755.00
2022-08-17T13:37:33.812Z,99753.00
2022-08-17T13:40:25.622Z,99756.00
2022-08-17T13:42:56.324Z,99763.00
2022-08-17T13:45:38.860Z,99760.00
2022-08-17T13:48:17.524Z,99763.00
2022-08-17T13:51:02.294Z,99767.00
2022-08-17T13:53:35.069Z,99755.00
2022-08-17T13:56:37.864Z,99761.00
2022-08-17T13:59:00.141Z,99759.00
2022-08-17T14:01:34.876Z,99751.00
2022-08-17T14:04:06.719Z,99755.00
2022-08-17T14:06:53.102Z,99755.00
2022-08-17T14:09:26.499Z,99748.00
2022-08-17T14:11:57.854Z,99755.00
2022-08-17T14:14:27.356Z,99747.00
2022-08-17T14:16:57.480Z,99736.00
2022-08-17T14:19:26.957Z,99748.00
2022-08-17T14:21:59.015Z,99745.00
2022-08-17T14:24:31.274Z,99737.00
2022-08-17T14:27:00.990Z,99744.00
2022-08-17T14:29:32.143Z,99729.00
2022-08-17T14:32:04.389Z,99717.00
2022-08-17T14:34:33.012Z,99717.00
2022-08-17T14:37:01.687Z,99718.00
2022-08-17T14:39:32.771Z,99713.00
2022-08-17T14:42:02.637Z,99714.00
2022-08-17T14:44:31.243Z,99715.00
2022-08-17T14:47:00.074Z,99718.00
2022-08-17T14:49:30.247Z,99717.00
2022-08-17T14:51:59.523Z,99725.00
2022-08-17T14:54:34.193Z,99721.00
2022-08-17T14:57:32.878Z,99724.00
2022-08-17T14:59:55.435Z,99714.00
2022-08-17T15:02:30.046Z,99728.00
2022-08-17T15:05:03.195Z,99727.00
2022-08-17T15:07:31.979Z,99724.00
2022-08-17T15:10:02.086Z,99729.00
2022-08-17T15:12:34.356Z,99733.00
2022-08-17T15:15:04.505Z,99722.00
2022-08-17T15:17:44.577Z,99728.00
2022-08-17T15:20:16.610Z,99727.00
2022-08-17T15:22:46.612Z,99728.00
2022-08-17T15:25:19.194Z,99732.00
2022-08-17T15:27:49.390Z,99729.00
2022-08-17T15:30:18.155Z,99723.00
2022-08-17T15:32:54.143Z,99728.00
2022-08-17T15:35:25.211Z,99723.00
2022-08-17T15:37:58.215Z,99717.00
2022-08-17T15:40:26.902Z,99715.00
2022-08-17T15:42:57.775Z,99712.00
2022-08-17T15:45:28.302Z,99722.00
2022-08-17T15:47:56.917Z,99717.00
2022-08-17T15:50:25.579Z,99710.00
2022-08-17T15:53:00.103Z,99714.00
2022-08-17T15:55:31.062Z,99711.00
2022-08-17T15:58:01.640Z,99694.00
2022-08-17T16:00:30.587Z,99689.00
2022-08-17T16:03:46.198Z,99693.00
2022-08-17T16:05:52.820Z,99685.00
2022-08-17T16:08:21.584Z,99686.00
2022-08-17T16:10:51.196Z,99687.00
2022-08-17T16:13:21.498Z,99683.00
2022-08-17T16:15:56.832Z,99686.00
2022-08-17T16:18:30.835Z,99685.00
2022-08-17T16:21:22.491Z,99692.00
2022-08-17T16:23:53.496Z,99688.00
2022-08-17T16:26:22.917Z,99690.00
2022-08-17T16:28:53.775Z,99685.00
2022-08-17T16:31:22.956Z,99686.00
2022-08-17T16:34:15.775Z,99693.00
2022-08-17T16:36:41.467Z,99695.00
2022-08-17T16:39:25.660Z,99691.00
2022-08-17T16:41:54.154Z,99702.00
2022-08-17T16:44:24.166Z,99700.00
2022-08-17T16:46:52.689Z,99700.00
2022-08-17T16:49:35.425Z,99701.00
2022-08-17T16:52:10.107Z,99699.00
2022-08-17T16:54:41.839Z,99690.00
2022-08-17T16:57:11.125Z,99685.00
2022-08-17T16:59:43.805Z,99696.00
2022-08-17T17:02:17.379Z,99684.00
2022-08-17T17:04:51.746Z,99681.00
2022-08-17T17:07:53.515Z,99679.00
2022-08-17T17:10:25.684Z,99680.00
2022-08-17T17:13:02.369Z,99683.00
2022-08-17T17:15:47.453Z,99686.00
2022-08-17T17:18:17.867Z,99693.00
2022-08-17T17:20:53.879Z,99690.00
2022-08-17T17:23:36.065Z,99706.00
2022-08-17T17:26:18.166Z,99707.00
2022-08-17T17:28:59.707Z,99695.00
2022-08-17T17:31:38.303Z,99705.00
2022-08-17T17:34:11.231Z,99716.00
2022-08-17T17:36:43.491Z,99716.00
2022-08-17T17:39:17.885Z,99717.00
2022-08-17T17:41:49.980Z,99719.00
2022-08-17T17:44:25.473Z,99717.00
2022-08-17T17:46:57.966Z,99703.00
2022-08-17T17:49:29.828Z,99707.00
2022-08-17T17:52:09.910Z,99709.00
2022-08-17T17:54:52.213Z,99717.00
2022-08-17T17:57:30.993Z,99724.00
2022-08-17T18:00:08.037Z,99723.00
2022-08-17T18:02:51.614Z,99720.00
2022-08-17T18:05:35.582Z,99718.00
2022-08-17T18:08:15.598Z,99718.00
2022-08-17T18:10:50.987Z,99719.00
2022-08-17T18:13:27.754Z,99724.00
2022-08-17T18:16:01.989Z,99729.00
2022-08-17T18:18:45.578Z,99721.00
2022-08-17T18:21:19.518Z,99726.00
2022-08-17T18:23:52.371Z,99721.00
2022-08-17T18:26:37.988Z,99722.00
2022-08-17T18:29:17.621Z,99725.00
2022-08-17T18:31:46.697Z,99726.00
2022-08-17T18:37:16.161Z,99717.00
2022-08-17T18:39:49.179Z,99729.00
2022-08-17T18:42:27.488Z,99720.00
2022-08-17T18:44:57.125Z,99723.00
2022-08-17T18:47:28.722Z,99717.00
2022-08-17T18:50:19.769Z,99707.00
2022-08-17T18:52:48.749Z,99713.00
2022-08-17T18:55:44.770Z,99712.00
2022-08-17T18:58:35.735Z,99707.00
2022-08-17T19:01:54.510Z,99702.00
2022-08-17T19:04:41.254Z,99702.00
2022-08-17T19:07:29.650Z,99706.00
2022-08-17T19:10:21.721Z,99705.00
2022-08-17T19:13:02.607Z,99715.00
2022-08-17T19:16:22.593Z,99708.00
2022-08-17T19:19:23.554Z,99715.00
2022-08-17T19:21:57.387Z,99721.00
2022-08-17T19:24:28.762Z,99709.00
2022-08-17T19:27:00.244Z,99719.00
2022-08-17T19:29:38.064Z,99712.00
2022-08-17T19:32:09.827Z,99718.00
2022-08-17T19:34:44.558Z,99717.00
2022-08-17T19:37:28.384Z,99718.00
2022-08-17T19:40:04.513Z,99712.00
2022-08-17T19:42:49.864Z,99711.00
2022-08-17T19:45:37.016Z,99715.00
2022-08-17T19:48:15.171Z,99718.00
2022-08-17T19:50:50.354Z,99710.00
2022-08-17T19:53:47.392Z,99705.00
2022-08-17T19:56:27.109Z,99711.00
2022-08-17T19:59:04.750Z,99705.00
2022-08-17T20:01:42.362Z,99700.00
2022-08-17T20:04:16.152Z,99701.00
2022-08-17T20:06:49.311Z,99707.00
2022-08-17T20:09:33.516Z,99704.00
2022-08-17T20:12:07.385Z,99698.00
2022-08-17T20:14:53.526Z,99695.00
2022-08-17T20:17:28.191Z,99692.00
2022-08-17T20:20:03.966Z,99697.00
2022-08-17T20:22:49.365Z,99697.00
2022-08-17T20:25:30.070Z,99698.00
2022-08-17T20:28:05.524Z,99697.00
2022-08-17T20:30:38.482Z,99701.00
2022-08-17T20:33:12.414Z,99696.00
2022-08-17T20:36:00.431Z,99694.00
2022-08-17T20:38:42.118Z,99693.00
2022-08-17T20:41:18.191Z,99689.00
2022-08-17T20:44:03.202Z,99697.00
2022-08-17T20:46:57.885Z,99700.00
2022-08-17T20:49:29.590Z,99705.00
2022-08-17T20:52:03.622Z,99704.00
2022-08-17T20:54:48.324Z,99711.00
2022-08-17T20:57:49.117Z,99702.00
2022-08-17T21:00:46.926Z,99713.00
2022-08-17T21:03:49.175Z,99707.00
2022-08-17T21:06:24.800Z,99713.00
2022-08-17T21:09:00.002Z,99711.00
2022-08-17T21:12:00.000Z,99710.00
2022-08-17T21:14:56.315Z,99713.00
2022-08-17T21:17:48.343Z,99715.00
2022-08-17T21:20:32.208Z,99714.00
2022-08-17T21:23:33.948Z,99723.00
2022-08-17T21:26:30.425Z,99722.00
2022-08-17T21:29:31.270Z,99726.00
2022-08-17T21:32:24.349Z,99729.00
2022-08-17T21:35:26.138Z,99726.00
2022-08-17T21:38:00.958Z,99732.00
2022-08-17T21:40:32.592Z,99738.00
2022-08-17T21:43:09.400Z,99740.00
2022-08-17T21:45:43.248Z,99742.00
2022-08-17T21:48:18.633Z,99746.00
2022-08-17T21:51:00.841Z,99761.00
2022-08-17T21:53:37.083Z,99750.00
2022-08-17T21:56:06.650Z,99753.00
2022-08-17T21:58:40.636Z,99751.00
2022-08-17T22:01:31.664Z,99752.00
2022-08-17T22:04:05.716Z,99750.00
2022-08-17T22:06:41.317Z,99755.00
2022-08-17T22:09:18.876Z,99755.00
2022-08-17T22:12:01.003Z,99754.00
2022-08-17T22:14:53.095Z,99752.00
2022-08-17T22:17:26.437Z,99755.00
2022-08-17T22:19:59.545Z,99749.00
2022-08-17T22:22:56.630Z,99750.00
2022-08-17T22:25:26.637Z,99749.00
2022-08-17T22:27:58.169Z,99741.00
2022-08-17T22:30:34.364Z,99743.00
2022-08-17T22:33:37.222Z,99740.00
2022-08-17T22:36:29.237Z,99736.00
2022-08-17T22:39:00.682Z,99736.00
2022-08-17T22:41:37.207Z,99739.00
2022-08-17T22:44:27.424Z,99736.00
2022-08-17T22:47:04.903Z,99744.00
2022-08-17T22:49:38.546Z,99747.00
2022-08-17T22:52:32.993Z,99755.00
2022-08-17T22:55:23.956Z,99765.00
2022-08-17T22:58:10.924Z,99768.00
2022-08-17T23:00:43.957Z,99774.00
2022-08-17T23:03:19.201Z,99756.00
2022-08-17T23:05:51.069Z,99761.00
2022-08-17T23:08:21.599Z,99749.00
2022-08-17T23:10:51.803Z,99752.00
2022-08-17T23:13:21.458Z,99756.00
2022-08-17T23:15:50.853Z,99754.00
2022-08-17T23:18:20.024Z,99756.00
2022-08-17T23:20:49.153Z,99752.00
2022-08-17T23:23:23.394Z,99756.00
2022-08-17T23:25:54.966Z,99753.00
2022-08-17T23:28:24.006Z,99756.00
2022-08-17T23:30:52.982Z,99764.00
2022-08-17T23:33:30.038Z,99761.00
2022-08-17T23:36:02.381Z,99762.00
2022-08-17T23:38:32.937Z,99761.00
2022-08-17T23:41:07.857Z,99757.00
2022-08-17T23:43:36.486Z,99753.00
2022-08-17T23:46:05.327Z,99749.00
2022-08-17T23:48:37.160Z,99758.00
2022-08-17T23:51:20.099Z,99749.00
2022-08-17T23:57:33.941Z,99751.00
